Latest Conditions
At L.F.Wade Int. Airport
Recorded at 3:55 pm
Partly Cloudy
Temp.: 
25°C/77°F
Humidity: 
64%
Wind: 
SSE 9KT
or 10mph
Island Observations
Observations
Tuesday, October 21, 2014

Observations are in local time and taken at least once an hour, or upon the start and end of specified events such as showers and thunderstorms.

Time Sky / Weather Wind Speed/Gusts Temp. R.H. Pressure
     knots (mph)  °C (°F)  %  mb / "Hg
 15:55 Partly Cloudy  SSE 9/0 (10/0) 25(77) 64 1018 / 30.05
 14:55 Partly Cloudy  SSE 8/0 (9/0) 25(77) 62 1017 / 30.04
 13:55 Few Clouds  SSE 8/0 (9/0) 25(77) 61 1018 / 30.07
 12:55 Few Clouds  SSE 6/0 (7/0) 25(78) 61 1019 / 30.09
 11:55 Partly Cloudy  SE 7/0 (8/0) 25(77) 59 1019 / 30.10
 10:55 Partly Cloudy  ESE 10/0 (12/0) 25(77) 58 1019 / 30.10
 09:55 Partly Cloudy  SE 8/0 (9/0) 25(77) 60 1020 / 30.11
 08:55 Few Clouds  E 3/0 (3/0) 23(74) 69 1019 / 30.09
 07:55 Few Clouds  WSW 3/0 (3/0) 21(70) 78 1019 / 30.09
 06:55 Few Clouds  Calm 21(70) 83 1019 / 30.09
 05:55 Few Clouds  SW 2/0 (2/0) 22(71) 72 1019 / 30.08
 04:55 Few Clouds  S 3/0 (3/0) 22(71) 74 1018 / 30.07
 03:55 Partly Cloudy  S 4/0 (5/0) 22(71) 75 1019 / 30.08
 02:55 Partly Cloudy  ESE 5/0 (6/0) 22(72) 74 1019 / 30.08
 01:55 Partly Cloudy  ENE 3/0 (3/0) 22(72) 72 1019 / 30.09
 00:55 Partly Cloudy  ENE 4/0 (5/0) 22(72) 72 1019 / 30.09
 23:55 Few Clouds  ENE 3/0 (3/0) 23(73) 70 1019 / 30.10
 22:55 Partly Cloudy  ENE 4/0 (5/0) 23(73) 70 1019 / 30.10
 21:55 Partly Cloudy  NE 3/0 (3/0) 23(73) 66 1019 / 30.10
 20:55 Partly Cloudy  NE 4/0 (5/0) 23(73) 63 1019 / 30.09
 19:55 Partly Cloudy  NNE 6/0 (7/0) 23(73) 61 1018 / 30.07
 18:55 Partly Cloudy  NNE 7/0 (8/0) 23(74) 59 1018 / 30.06
 17:55 Partly Cloudy  NNE 6/0 (7/0) 24(76) 54 1018 / 30.06
 16:55 Partly Cloudy  NNE 8/0 (9/0) 25(77) 53 1018 / 30.05
Observations from our AWOS sites are available here (password and username are both 'guest').